sensor_id;sensor_type;location;lat;lon;timestamp;pressure;altitude;pressure_sealevel;temperature;humidity
11712;BME280;5912;51.034;6.984;2023-04-15T00:00:05;56520.59;;;-142.13;54.87
11712;BME280;5912;51.034;6.984;2023-04-15T00:02:30;56520.59;;;-142.13;54.87
11712;BME280;5912;51.034;6.984;2023-04-15T00:04:56;56502.56;;;-142.13;54.87
11712;BME280;5912;51.034;6.984;2023-04-15T00:07:21;56526.59;;;-142.13;54.89
11712;BME280;5912;51.034;6.984;2023-04-15T00:09:46;56528.59;;;-142.13;54.60
11712;BME280;5912;51.034;6.984;2023-04-15T00:12:11;56554.66;;;-142.13;54.35
11712;BME280;5912;51.034;6.984;2023-04-15T00:14:37;56522.59;;;-142.13;54.64
11712;BME280;5912;51.034;6.984;2023-04-15T00:17:03;56542.63;;;-142.13;54.70
11712;BME280;5912;51.034;6.984;2023-04-15T00:19:29;56532.63;;;-142.13;54.40
11712;BME280;5912;51.034;6.984;2023-04-15T00:21:54;56524.59;;;-142.13;54.54
11712;BME280;5912;51.034;6.984;2023-04-15T00:24:20;56512.59;;;-142.13;53.89
11712;BME280;5912;51.034;6.984;2023-04-15T00:26:46;56502.56;;;-142.13;53.72
11712;BME280;5912;51.034;6.984;2023-04-15T00:29:11;56518.59;;;-142.13;53.52
11712;BME280;5912;51.034;6.984;2023-04-15T00:31:37;56504.56;;;-142.13;52.97
11712;BME280;5912;51.034;6.984;2023-04-15T00:34:02;56508.56;;;-142.13;52.83
11712;BME280;5912;51.034;6.984;2023-04-15T00:36:28;56494.56;;;-142.13;53.15
11712;BME280;5912;51.034;6.984;2023-04-15T00:38:54;56522.59;;;-142.13;53.22
11712;BME280;5912;51.034;6.984;2023-04-15T00:41:19;56544.63;;;-142.13;53.80
11712;BME280;5912;51.034;6.984;2023-04-15T00:43:45;56512.59;;;-142.13;53.87
11712;BME280;5912;51.034;6.984;2023-04-15T00:46:12;56496.56;;;-142.13;54.20
11712;BME280;5912;51.034;6.984;2023-04-15T00:48:38;56552.66;;;-142.13;54.34
11712;BME280;5912;51.034;6.984;2023-04-15T00:51:04;56546.63;;;-142.13;54.63
11712;BME280;5912;51.034;6.984;2023-04-15T00:53:31;56550.63;;;-142.13;55.22
11712;BME280;5912;51.034;6.984;2023-04-15T00:55:56;56520.59;;;-142.13;55.39
11712;BME280;5912;51.034;6.984;2023-04-15T00:58:22;56532.63;;;-142.13;55.15
11712;BME280;5912;51.034;6.984;2023-04-15T01:00:47;56544.63;;;-142.13;55.03
11712;BME280;5912;51.034;6.984;2023-04-15T01:03:13;56500.56;;;-142.13;54.71
11712;BME280;5912;51.034;6.984;2023-04-15T01:05:39;56516.59;;;-142.13;54.54
11712;BME280;5912;51.034;6.984;2023-04-15T01:08:05;56524.59;;;-142.13;54.48
11712;BME280;5912;51.034;6.984;2023-04-15T01:10:31;56532.63;;;-142.13;54.31
11712;BME280;5912;51.034;6.984;2023-04-15T01:12:57;56528.59;;;-142.13;54.51
11712;BME280;5912;51.034;6.984;2023-04-15T01:15:22;56528.59;;;-142.13;54.82
11712;BME280;5912;51.034;6.984;2023-04-15T01:17:48;56546.63;;;-142.13;54.56
11712;BME280;5912;51.034;6.984;2023-04-15T01:20:14;56532.63;;;-142.13;54.53
11712;BME280;5912;51.034;6.984;2023-04-15T01:22:40;56536.63;;;-142.13;54.22
11712;BME280;5912;51.034;6.984;2023-04-15T01:25:10;56526.59;;;-142.13;54.19
11712;BME280;5912;51.034;6.984;2023-04-15T01:27:38;56516.59;;;-142.13;54.37
11712;BME280;5912;51.034;6.984;2023-04-15T01:30:04;56540.63;;;-142.13;54.70
11712;BME280;5912;51.034;6.984;2023-04-15T01:32:30;56466.50;;;-142.13;55.39
11712;BME280;5912;51.034;6.984;2023-04-15T01:34:55;56532.63;;;-142.13;55.72
11712;BME280;5912;51.034;6.984;2023-04-15T01:37:21;56564.66;;;-142.13;55.89
11712;BME280;5912;51.034;6.984;2023-04-15T01:39:46;56532.63;;;-142.13;57.10
11712;BME280;5912;51.034;6.984;2023-04-15T01:42:12;56536.63;;;-142.13;57.16
11712;BME280;5912;51.034;6.984;2023-04-15T01:44:37;56560.66;;;-142.13;57.74
11712;BME280;5912;51.034;6.984;2023-04-15T01:47:02;56548.63;;;-142.13;58.22
11712;BME280;5912;51.034;6.984;2023-04-15T01:49:27;56532.63;;;-142.13;58.92
11712;BME280;5912;51.034;6.984;2023-04-15T01:51:53;56548.63;;;-142.13;58.89
11712;BME280;5912;51.034;6.984;2023-04-15T01:54:19;56500.56;;;-142.13;58.76
11712;BME280;5912;51.034;6.984;2023-04-15T01:56:44;56566.66;;;-142.13;59.74
11712;BME280;5912;51.034;6.984;2023-04-15T01:59:09;56544.63;;;-142.13;58.83
11712;BME280;5912;51.034;6.984;2023-04-15T02:01:35;56552.66;;;-142.13;58.18
11712;BME280;5912;51.034;6.984;2023-04-15T02:04:00;56544.63;;;-142.13;57.15
11712;BME280;5912;51.034;6.984;2023-04-15T02:06:25;56550.63;;;-142.13;57.10
11712;BME280;5912;51.034;6.984;2023-04-15T02:08:52;56552.66;;;-142.13;56.42
11712;BME280;5912;51.034;6.984;2023-04-15T02:11:17;56536.63;;;-142.13;56.53
11712;BME280;5912;51.034;6.984;2023-04-15T02:13:43;56532.63;;;-142.13;56.58
11712;BME280;5912;51.034;6.984;2023-04-15T02:16:16;56544.63;;;-142.13;57.06
11712;BME280;5912;51.034;6.984;2023-04-15T02:18:43;56528.59;;;-142.13;57.15
11712;BME280;5912;51.034;6.984;2023-04-15T02:21:09;56520.59;;;-142.13;57.99
11712;BME280;5912;51.034;6.984;2023-04-15T02:23:34;56542.63;;;-142.13;58.53
11712;BME280;5912;51.034;6.984;2023-04-15T02:25:59;56552.66;;;-142.13;59.39
11712;BME280;5912;51.034;6.984;2023-04-15T02:28:25;56564.66;;;-142.13;59.28
11712;BME280;5912;51.034;6.984;2023-04-15T02:30:51;56556.66;;;-142.13;59.88
11712;BME280;5912;51.034;6.984;2023-04-15T02:33:18;56560.66;;;-142.13;59.90
11712;BME280;5912;51.034;6.984;2023-04-15T02:35:44;56542.63;;;-142.13;60.39
11712;BME280;5912;51.034;6.984;2023-04-15T02:38:10;56576.69;;;-142.13;60.59
11712;BME280;5912;51.034;6.984;2023-04-15T02:40:36;56532.63;;;-142.13;60.91
11712;BME280;5912;51.034;6.984;2023-04-15T02:43:01;56554.66;;;-142.13;61.09
11712;BME280;5912;51.034;6.984;2023-04-15T02:45:27;56552.66;;;-142.13;61.61
11712;BME280;5912;51.034;6.984;2023-04-15T02:47:53;56578.69;;;-142.13;61.83
11712;BME280;5912;51.034;6.984;2023-04-15T02:50:19;56556.66;;;-142.13;61.91
11712;BME280;5912;51.034;6.984;2023-04-15T02:52:45;56648.81;;;-142.13;61.94
11712;BME280;5912;51.034;6.984;2023-04-15T02:55:11;56548.63;;;-142.13;62.56
11712;BME280;5912;51.034;6.984;2023-04-15T02:57:36;56548.63;;;-142.13;62.66
11712;BME280;5912;51.034;6.984;2023-04-15T03:00:03;56548.63;;;-142.13;62.32
11712;BME280;5912;51.034;6.984;2023-04-15T03:02:33;56578.69;;;-142.13;62.94
11712;BME280;5912;51.034;6.984;2023-04-15T03:04:59;56592.72;;;-142.13;62.65
11712;BME280;5912;51.034;6.984;2023-04-15T03:07:24;56572.69;;;-142.13;63.26
11712;BME280;5912;51.034;6.984;2023-04-15T03:09:50;56554.66;;;-142.13;63.49
11712;BME280;5912;51.034;6.984;2023-04-15T03:12:15;56556.66;;;-142.13;63.63
11712;BME280;5912;51.034;6.984;2023-04-15T03:14:40;56558.66;;;-142.13;63.64
11712;BME280;5912;51.034;6.984;2023-04-15T03:17:06;56566.66;;;-142.13;63.61
11712;BME280;5912;51.034;6.984;2023-04-15T03:19:32;56578.69;;;-142.13;63.95
11712;BME280;5912;51.034;6.984;2023-04-15T03:21:57;56574.69;;;-142.13;63.51
11712;BME280;5912;51.034;6.984;2023-04-15T03:24:22;56532.63;;;-142.13;64.17
11712;BME280;5912;51.034;6.984;2023-04-15T03:26:48;56580.69;;;-142.13;64.03
11712;BME280;5912;51.034;6.984;2023-04-15T03:29:14;56580.69;;;-142.13;64.52
11712;BME280;5912;51.034;6.984;2023-04-15T03:31:40;56568.66;;;-142.13;64.61
11712;BME280;5912;51.034;6.984;2023-04-15T03:34:05;56558.66;;;-142.13;64.51
11712;BME280;5912;51.034;6.984;2023-04-15T03:36:31;56568.66;;;-142.13;65.34
11712;BME280;5912;51.034;6.984;2023-04-15T03:38:57;56528.59;;;-142.13;64.59
11712;BME280;5912;51.034;6.984;2023-04-15T03:41:23;56556.66;;;-142.13;65.34
11712;BME280;5912;51.034;6.984;2023-04-15T03:43:48;56568.66;;;-142.13;65.17
11712;BME280;5912;51.034;6.984;2023-04-15T03:46:16;56554.66;;;-142.13;65.18
11712;BME280;5912;51.034;6.984;2023-04-15T03:48:41;56590.72;;;-142.13;64.82
11712;BME280;5912;51.034;6.984;2023-04-15T03:51:07;56600.72;;;-142.13;65.60
11712;BME280;5912;51.034;6.984;2023-04-15T03:53:32;56566.66;;;-142.13;66.14
11712;BME280;5912;51.034;6.984;2023-04-15T03:55:57;56576.69;;;-142.13;65.46
11712;BME280;5912;51.034;6.984;2023-04-15T03:58:22;56564.66;;;-142.13;65.60
11712;BME280;5912;51.034;6.984;2023-04-15T04:00:48;56584.69;;;-142.13;65.29
11712;BME280;5912;51.034;6.984;2023-04-15T04:03:13;56574.69;;;-142.13;66.17
11712;BME280;5912;51.034;6.984;2023-04-15T04:05:38;56580.69;;;-142.13;65.71
11712;BME280;5912;51.034;6.984;2023-04-15T04:08:05;56566.66;;;-142.13;65.90
11712;BME280;5912;51.034;6.984;2023-04-15T04:10:31;56524.59;;;-142.13;65.55
11712;BME280;5912;51.034;6.984;2023-04-15T04:12:56;56584.69;;;-142.13;66.47
11712;BME280;5912;51.034;6.984;2023-04-15T04:15:22;56580.69;;;-142.13;66.14
11712;BME280;5912;51.034;6.984;2023-04-15T04:17:47;56616.75;;;-142.13;66.30
11712;BME280;5912;51.034;6.984;2023-04-15T04:20:12;56592.72;;;-142.13;66.41
11712;BME280;5912;51.034;6.984;2023-04-15T04:22:38;56584.69;;;-142.13;66.36
11712;BME280;5912;51.034;6.984;2023-04-15T04:25:05;56566.66;;;-142.13;66.75
11712;BME280;5912;51.034;6.984;2023-04-15T04:27:32;56572.69;;;-142.13;66.47
11712;BME280;5912;51.034;6.984;2023-04-15T04:29:57;56576.69;;;-142.13;66.36
11712;BME280;5912;51.034;6.984;2023-04-15T04:32:22;56580.69;;;-142.13;66.88
11712;BME280;5912;51.034;6.984;2023-04-15T04:34:48;56552.66;;;-142.13;67.27
11712;BME280;5912;51.034;6.984;2023-04-15T04:37:13;56568.66;;;-142.13;67.09
11712;BME280;5912;51.034;6.984;2023-04-15T04:39:39;56602.72;;;-142.13;66.37
11712;BME280;5912;51.034;6.984;2023-04-15T04:42:04;56590.72;;;-142.13;67.27
11712;BME280;5912;51.034;6.984;2023-04-15T04:44:29;56562.66;;;-142.13;67.40
11712;BME280;5912;51.034;6.984;2023-04-15T04:46:55;56578.69;;;-142.13;67.43
11712;BME280;5912;51.034;6.984;2023-04-15T04:49:21;56576.69;;;-142.13;67.06
11712;BME280;5912;51.034;6.984;2023-04-15T04:51:46;56588.69;;;-142.13;67.46
11712;BME280;5912;51.034;6.984;2023-04-15T04:54:12;56594.72;;;-142.13;67.94
11712;BME280;5912;51.034;6.984;2023-04-15T04:56:38;56572.69;;;-142.13;67.49
11712;BME280;5912;51.034;6.984;2023-04-15T04:59:04;56560.66;;;-142.13;67.89
11712;BME280;5912;51.034;6.984;2023-04-15T05:01:29;56576.69;;;-142.13;68.34
11712;BME280;5912;51.034;6.984;2023-04-15T05:03:54;56538.63;;;-142.13;68.24
11712;BME280;5912;51.034;6.984;2023-04-15T05:06:20;56584.69;;;-142.13;68.00
11712;BME280;5912;51.034;6.984;2023-04-15T05:08:46;56586.69;;;-142.13;67.97
11712;BME280;5912;51.034;6.984;2023-04-15T05:11:12;56580.69;;;-142.13;68.33
11712;BME280;5912;51.034;6.984;2023-04-15T05:13:37;56584.69;;;-142.13;67.98
11712;BME280;5912;51.034;6.984;2023-04-15T05:16:04;56614.75;;;-142.13;67.53
11712;BME280;5912;51.034;6.984;2023-04-15T05:18:30;56548.63;;;-142.13;67.25
11712;BME280;5912;51.034;6.984;2023-04-15T05:20:55;56592.72;;;-142.13;67.46
11712;BME280;5912;51.034;6.984;2023-04-15T05:23:20;56568.66;;;-142.13;67.66
11712;BME280;5912;51.034;6.984;2023-04-15T05:25:46;56558.66;;;-142.13;67.93
11712;BME280;5912;51.034;6.984;2023-04-15T05:28:11;56590.72;;;-142.13;67.84
11712;BME280;5912;51.034;6.984;2023-04-15T05:30:37;56572.69;;;-142.13;67.95
11712;BME280;5912;51.034;6.984;2023-04-15T05:33:03;56572.69;;;-142.13;67.60
11712;BME280;5912;51.034;6.984;2023-04-15T05:35:28;56564.66;;;-142.13;67.79
11712;BME280;5912;51.034;6.984;2023-04-15T05:37:53;56542.63;;;-142.13;68.03
11712;BME280;5912;51.034;6.984;2023-04-15T05:40:18;56570.69;;;-142.13;67.96
11712;BME280;5912;51.034;6.984;2023-04-15T05:42:44;56576.69;;;-142.13;67.43
11712;BME280;5912;51.034;6.984;2023-04-15T05:45:10;56554.66;;;-142.13;67.55
11712;BME280;5912;51.034;6.984;2023-04-15T05:47:35;56554.66;;;-142.13;67.70
11712;BME280;5912;51.034;6.984;2023-04-15T05:50:02;56532.63;;;-142.13;67.45
11712;BME280;5912;51.034;6.984;2023-04-15T05:52:27;56554.66;;;-142.13;66.96
11712;BME280;5912;51.034;6.984;2023-04-15T05:54:52;56572.69;;;-142.13;66.69
11712;BME280;5912;51.034;6.984;2023-04-15T05:57:18;56526.59;;;-142.13;65.77
11712;BME280;5912;51.034;6.984;2023-04-15T05:59:43;56520.59;;;-142.13;65.72
11712;BME280;5912;51.034;6.984;2023-04-15T06:02:09;56504.56;;;-142.13;65.04
11712;BME280;5912;51.034;6.984;2023-04-15T06:04:34;56496.56;;;-142.13;64.30
11712;BME280;5912;51.034;6.984;2023-04-15T06:07:01;56494.56;;;-142.13;63.96
11712;BME280;5912;51.034;6.984;2023-04-15T06:09:26;56488.53;;;-142.13;63.01
11712;BME280;5912;51.034;6.984;2023-04-15T06:11:53;56472.50;;;-142.13;62.17
11712;BME280;5912;51.034;6.984;2023-04-15T06:14:18;56484.53;;;-142.13;61.90
11712;BME280;5912;51.034;6.984;2023-04-15T06:16:44;56494.56;;;-142.13;61.43
11712;BME280;5912;51.034;6.984;2023-04-15T06:19:09;56488.53;;;-142.13;61.12
11712;BME280;5912;51.034;6.984;2023-04-15T06:21:35;56464.50;;;-142.13;61.08
11712;BME280;5912;51.034;6.984;2023-04-15T06:24:00;56472.50;;;-142.13;60.47
11712;BME280;5912;51.034;6.984;2023-04-15T06:26:26;56436.47;;;-142.13;59.28
11712;BME280;5912;51.034;6.984;2023-04-15T06:28:52;56454.47;;;-142.13;58.17
11712;BME280;5912;51.034;6.984;2023-04-15T06:31:17;56436.47;;;-142.13;57.48
11712;BME280;5912;51.034;6.984;2023-04-15T06:33:42;56456.50;;;-142.13;56.77
11712;BME280;5912;51.034;6.984;2023-04-15T06:36:08;56384.38;;;-142.13;55.24
11712;BME280;5912;51.034;6.984;2023-04-15T06:38:33;56410.41;;;-142.13;54.32
11712;BME280;5912;51.034;6.984;2023-04-15T06:40:58;56384.38;;;-142.13;53.78
11712;BME280;5912;51.034;6.984;2023-04-15T06:43:24;56374.34;;;-142.13;52.17
11712;BME280;5912;51.034;6.984;2023-04-15T06:45:49;56384.38;;;-142.13;50.01
11712;BME280;5912;51.034;6.984;2023-04-15T06:48:15;56344.31;;;-142.13;49.80
11712;BME280;5912;51.034;6.984;2023-04-15T06:50:40;56342.31;;;-142.13;49.31
11712;BME280;5912;51.034;6.984;2023-04-15T06:53:06;56372.34;;;-142.13;48.07
11712;BME280;5912;51.034;6.984;2023-04-15T06:55:31;56316.25;;;-142.13;47.25
11712;BME280;5912;51.034;6.984;2023-04-15T06:57:58;56348.31;;;-142.13;45.95
11712;BME280;5912;51.034;6.984;2023-04-15T07:00:23;56346.31;;;-142.13;45.37
11712;BME280;5912;51.034;6.984;2023-04-15T07:02:49;56326.28;;;-142.13;44.93
11712;BME280;5912;51.034;6.984;2023-04-15T07:05:15;56280.22;;;-142.13;43.68
11712;BME280;5912;51.034;6.984;2023-04-15T07:07:41;56290.22;;;-142.13;42.78
11712;BME280;5912;51.034;6.984;2023-04-15T07:10:21;56280.22;;;-142.13;41.41
11712;BME280;5912;51.034;6.984;2023-04-15T07:12:48;56280.22;;;-142.13;40.85
11712;BME280;5912;51.034;6.984;2023-04-15T07:15:14;56232.13;;;-142.13;39.77
11712;BME280;5912;51.034;6.984;2023-04-15T07:17:40;56250.16;;;-142.13;39.27
11712;BME280;5912;51.034;6.984;2023-04-15T07:20:07;56228.13;;;-142.13;37.72
11712;BME280;5912;51.034;6.984;2023-04-15T07:22:33;56224.13;;;-142.13;37.57
11712;BME280;5912;51.034;6.984;2023-04-15T07:24:58;56204.09;;;-142.13;36.36
11712;BME280;5912;51.034;6.984;2023-04-15T07:27:23;56208.09;;;-142.13;34.77
11712;BME280;5912;51.034;6.984;2023-04-15T07:29:49;56208.09;;;-142.13;34.67
11712;BME280;5912;51.034;6.984;2023-04-15T07:32:16;56212.09;;;-142.13;35.49
11712;BME280;5912;51.034;6.984;2023-04-15T07:34:41;56216.09;;;-142.13;35.49
11712;BME280;5912;51.034;6.984;2023-04-15T07:37:07;56202.09;;;-142.13;35.37
11712;BME280;5912;51.034;6.984;2023-04-15T07:39:32;56206.09;;;-142.13;34.67
11712;BME280;5912;51.034;6.984;2023-04-15T07:41:58;56212.09;;;-142.13;34.62
11712;BME280;5912;51.034;6.984;2023-04-15T07:44:24;56344.31;;;-142.13;34.85
11712;BME280;5912;51.034;6.984;2023-04-15T07:46:49;56168.03;;;-142.13;33.83
11712;BME280;5912;51.034;6.984;2023-04-15T07:49:15;56156.00;;;-142.13;33.79
11712;BME280;5912;51.034;6.984;2023-04-15T07:51:40;56192.06;;;-142.13;33.60
11712;BME280;5912;51.034;6.984;2023-04-15T07:54:05;56166.03;;;-142.13;32.87
11712;BME280;5912;51.034;6.984;2023-04-15T07:56:31;56220.13;;;-142.13;33.55
11712;BME280;5912;51.034;6.984;2023-04-15T07:58:56;56178.03;;;-142.13;33.31
11712;BME280;5912;51.034;6.984;2023-04-15T08:01:22;56210.09;;;-142.13;33.50
11712;BME280;5912;51.034;6.984;2023-04-15T08:03:47;56196.06;;;-142.13;33.01
11712;BME280;5912;51.034;6.984;2023-04-15T08:06:13;56148.00;;;-142.13;33.38
11712;BME280;5912;51.034;6.984;2023-04-15T08:08:38;56196.06;;;-142.13;33.14
11712;BME280;5912;51.034;6.984;2023-04-15T08:11:04;56164.03;;;-142.13;33.01
11712;BME280;5912;51.034;6.984;2023-04-15T08:13:29;56156.00;;;-142.13;32.17
11712;BME280;5912;51.034;6.984;2023-04-15T08:18:40;56172.03;;;-142.13;32.64
11712;BME280;5912;51.034;6.984;2023-04-15T08:21:06;56184.06;;;-142.13;31.80
11712;BME280;5912;51.034;6.984;2023-04-15T08:23:31;56140.00;;;-142.13;31.95
11712;BME280;5912;51.034;6.984;2023-04-15T08:25:57;56190.06;;;-142.13;32.01
11712;BME280;5912;51.034;6.984;2023-04-15T08:28:42;56162.03;;;-142.13;32.12
11712;BME280;5912;51.034;6.984;2023-04-15T08:31:08;56184.06;;;-142.13;32.37
11712;BME280;5912;51.034;6.984;2023-04-15T08:33:34;56168.03;;;-142.13;32.74
11712;BME280;5912;51.034;6.984;2023-04-15T08:35:59;56166.03;;;-142.13;32.86
11712;BME280;5912;51.034;6.984;2023-04-15T08:38:24;56180.06;;;-142.13;33.02
11712;BME280;5912;51.034;6.984;2023-04-15T08:40:50;56192.06;;;-142.13;32.99
11712;BME280;5912;51.034;6.984;2023-04-15T08:43:26;56180.06;;;-142.13;32.40
11712;BME280;5912;51.034;6.984;2023-04-15T08:45:53;56178.03;;;-142.13;32.52
11712;BME280;5912;51.034;6.984;2023-04-15T08:48:19;56184.06;;;-142.13;32.95
11712;BME280;5912;51.034;6.984;2023-04-15T08:50:46;56224.13;;;-142.13;33.14
11712;BME280;5912;51.034;6.984;2023-04-15T08:53:12;56216.09;;;-142.13;33.58
11712;BME280;5912;51.034;6.984;2023-04-15T08:55:50;56212.09;;;-142.13;34.10
11712;BME280;5912;51.034;6.984;2023-04-15T08:58:16;56264.19;;;-142.13;33.51
11712;BME280;5912;51.034;6.984;2023-04-15T09:00:43;56212.09;;;-142.13;33.46
11712;BME280;5912;51.034;6.984;2023-04-15T09:03:08;56184.06;;;-142.13;33.53
11712;BME280;5912;51.034;6.984;2023-04-15T09:05:37;56148.00;;;-142.13;33.03
11712;BME280;5912;51.034;6.984;2023-04-15T09:08:03;56152.00;;;-142.13;31.88
11712;BME280;5912;51.034;6.984;2023-04-15T09:11:06;56127.97;;;-142.13;31.34
11712;BME280;5912;51.034;6.984;2023-04-15T09:13:32;56144.00;;;-142.13;32.12
11712;BME280;5912;51.034;6.984;2023-04-15T09:16:00;56140.00;;;-142.13;32.14
11712;BME280;5912;51.034;6.984;2023-04-15T09:18:33;56166.03;;;-142.13;31.31
11712;BME280;5912;51.034;6.984;2023-04-15T09:21:13;56140.00;;;-142.13;32.17
11712;BME280;5912;51.034;6.984;2023-04-15T09:23:41;56144.00;;;-142.13;31.72
11712;BME280;5912;51.034;6.984;2023-04-15T09:26:17;56168.03;;;-142.13;31.81
11712;BME280;5912;51.034;6.984;2023-04-15T09:28:43;56156.00;;;-142.13;32.48
11712;BME280;5912;51.034;6.984;2023-04-15T09:31:40;56168.03;;;-142.13;32.93
11712;BME280;5912;51.034;6.984;2023-04-15T09:34:06;56166.03;;;-142.13;32.64
11712;BME280;5912;51.034;6.984;2023-04-15T09:36:52;56148.00;;;-142.13;32.24
11712;BME280;5912;51.034;6.984;2023-04-15T09:39:17;56140.00;;;-142.13;31.68
11712;BME280;5912;51.034;6.984;2023-04-15T09:41:43;56178.03;;;-142.13;31.56
11712;BME280;5912;51.034;6.984;2023-04-15T09:44:22;56160.03;;;-142.13;32.03
11712;BME280;5912;51.034;6.984;2023-04-15T09:46:48;56206.09;;;-142.13;31.80
11712;BME280;5912;51.034;6.984;2023-04-15T09:49:13;56123.97;;;-142.13;32.12
11712;BME280;5912;51.034;6.984;2023-04-15T09:51:40;56075.88;;;-142.13;31.50
11712;BME280;5912;51.034;6.984;2023-04-15T09:54:05;56085.91;;;-142.13;30.89
11712;BME280;5912;51.034;6.984;2023-04-15T09:56:34;56059.88;;;-142.13;29.53
11712;BME280;5912;51.034;6.984;2023-04-15T09:59:01;56043.84;;;-142.13;29.69
11712;BME280;5912;51.034;6.984;2023-04-15T10:01:26;56051.84;;;-142.13;29.46
11712;BME280;5912;51.034;6.984;2023-04-15T10:03:53;56083.91;;;-142.13;30.19
11712;BME280;5912;51.034;6.984;2023-04-15T10:06:21;56103.94;;;-142.13;30.41
11712;BME280;5912;51.034;6.984;2023-04-15T10:08:47;56111.94;;;-142.13;30.62
11712;BME280;5912;51.034;6.984;2023-04-15T10:11:13;56101.94;;;-142.13;30.81
11712;BME280;5912;51.034;6.984;2023-04-15T10:13:38;56133.97;;;-142.13;31.63
11712;BME280;5912;51.034;6.984;2023-04-15T10:16:13;56174.03;;;-142.13;32.15
11712;BME280;5912;51.034;6.984;2023-04-15T10:18:47;56160.03;;;-142.13;32.29
11712;BME280;5912;51.034;6.984;2023-04-15T10:21:15;56091.91;;;-142.13;32.03
11712;BME280;5912;51.034;6.984;2023-04-15T10:23:44;56069.88;;;-142.13;31.10
11712;BME280;5912;51.034;6.984;2023-04-15T10:26:09;56061.88;;;-142.13;30.37
11712;BME280;5912;51.034;6.984;2023-04-15T10:28:37;56079.91;;;-142.13;30.50
11712;BME280;5912;51.034;6.984;2023-04-15T10:31:03;56067.88;;;-142.13;30.10
11712;BME280;5912;51.034;6.984;2023-04-15T10:33:29;56107.94;;;-142.13;30.29
11712;BME280;5912;51.034;6.984;2023-04-15T10:35:55;56063.88;;;-142.13;30.71
11712;BME280;5912;51.034;6.984;2023-04-15T10:38:30;56095.91;;;-142.13;30.93
11712;BME280;5912;51.034;6.984;2023-04-15T10:41:14;56115.94;;;-142.13;31.54
11712;BME280;5912;51.034;6.984;2023-04-15T10:43:45;56079.91;;;-142.13;31.74
11712;BME280;5912;51.034;6.984;2023-04-15T10:46:12;56133.97;;;-142.13;32.07
11712;BME280;5912;51.034;6.984;2023-04-15T10:48:37;56140.00;;;-142.13;32.70
11712;BME280;5912;51.034;6.984;2023-04-15T10:51:02;56148.00;;;-142.13;32.87
11712;BME280;5912;51.034;6.984;2023-04-15T10:53:29;56156.00;;;-142.13;32.45
11712;BME280;5912;51.034;6.984;2023-04-15T10:55:56;56150.00;;;-142.13;33.19
11712;BME280;5912;51.034;6.984;2023-04-15T10:58:23;56180.06;;;-142.13;33.01
11712;BME280;5912;51.034;6.984;2023-04-15T11:00:50;56146.00;;;-142.13;33.22
11712;BME280;5912;51.034;6.984;2023-04-15T11:03:38;56146.00;;;-142.13;33.28
11712;BME280;5912;51.034;6.984;2023-04-15T11:06:05;56148.00;;;-142.13;33.96
11712;BME280;5912;51.034;6.984;2023-04-15T11:08:57;56178.03;;;-142.13;33.82
11712;BME280;5912;51.034;6.984;2023-04-15T11:14:26;56170.03;;;-142.13;34.13
11712;BME280;5912;51.034;6.984;2023-04-15T11:16:52;56131.97;;;-142.13;34.30
11712;BME280;5912;51.034;6.984;2023-04-15T11:19:17;56152.00;;;-142.13;33.43
11712;BME280;5912;51.034;6.984;2023-04-15T11:21:42;56158.00;;;-142.13;33.65
11712;BME280;5912;51.034;6.984;2023-04-15T11:24:08;56150.00;;;-142.13;33.32
11712;BME280;5912;51.034;6.984;2023-04-15T11:26:33;56160.03;;;-142.13;33.74
11712;BME280;5912;51.034;6.984;2023-04-15T11:28:58;56156.00;;;-142.13;33.84
11712;BME280;5912;51.034;6.984;2023-04-15T11:31:26;56156.00;;;-142.13;33.57
11712;BME280;5912;51.034;6.984;2023-04-15T11:33:56;56144.00;;;-142.13;33.53
11712;BME280;5912;51.034;6.984;2023-04-15T11:36:32;56186.06;;;-142.13;34.23
11712;BME280;5912;51.034;6.984;2023-04-15T11:38:58;56172.03;;;-142.13;34.35
11712;BME280;5912;51.034;6.984;2023-04-15T11:41:24;56200.09;;;-142.13;34.67
11712;BME280;5912;51.034;6.984;2023-04-15T11:43:50;56156.00;;;-142.13;34.81
11712;BME280;5912;51.034;6.984;2023-04-15T11:46:15;56146.00;;;-142.13;34.30
11712;BME280;5912;51.034;6.984;2023-04-15T11:48:42;56164.03;;;-142.13;33.33
11712;BME280;5912;51.034;6.984;2023-04-15T11:51:09;56158.00;;;-142.13;33.60
11712;BME280;5912;51.034;6.984;2023-04-15T11:53:45;56144.00;;;-142.13;34.12
11712;BME280;5912;51.034;6.984;2023-04-15T11:56:22;56162.03;;;-142.13;34.79
11712;BME280;5912;51.034;6.984;2023-04-15T11:58:51;56148.00;;;-142.13;35.05
11712;BME280;5912;51.034;6.984;2023-04-15T12:01:17;56180.06;;;-142.13;35.52
11712;BME280;5912;51.034;6.984;2023-04-15T12:03:45;56190.06;;;-142.13;35.29
11712;BME280;5912;51.034;6.984;2023-04-15T12:06:15;56160.03;;;-142.13;35.35
11712;BME280;5912;51.034;6.984;2023-04-15T12:11:12;56224.13;;;-142.13;36.78
11712;BME280;5912;51.034;6.984;2023-04-15T12:13:38;56224.13;;;-142.13;37.00
11712;BME280;5912;51.034;6.984;2023-04-15T12:16:07;56228.13;;;-142.13;37.79
11712;BME280;5912;51.034;6.984;2023-04-15T12:18:32;56258.16;;;-142.13;38.81
11712;BME280;5912;51.034;6.984;2023-04-15T12:21:08;56258.16;;;-142.13;39.46
11712;BME280;5912;51.034;6.984;2023-04-15T12:23:36;56262.19;;;-142.13;39.93
11712;BME280;5912;51.034;6.984;2023-04-15T12:26:04;56272.19;;;-142.13;40.40
11712;BME280;5912;51.034;6.984;2023-04-15T12:28:30;56294.22;;;-142.13;41.10
11712;BME280;5912;51.034;6.984;2023-04-15T12:30:56;56270.19;;;-142.13;41.19
11712;BME280;5912;51.034;6.984;2023-04-15T12:33:21;56280.22;;;-142.13;41.19
11712;BME280;5912;51.034;6.984;2023-04-15T12:35:47;56310.25;;;-142.13;41.44
11712;BME280;5912;51.034;6.984;2023-04-15T12:38:12;56300.25;;;-142.13;41.37
11712;BME280;5912;51.034;6.984;2023-04-15T12:40:37;56312.25;;;-142.13;41.41
11712;BME280;5912;51.034;6.984;2023-04-15T12:43:03;56284.22;;;-142.13;41.47
11712;BME280;5912;51.034;6.984;2023-04-15T12:45:28;56312.25;;;-142.13;41.68
11712;BME280;5912;51.034;6.984;2023-04-15T12:47:53;56300.25;;;-142.13;42.11
11712;BME280;5912;51.034;6.984;2023-04-15T12:50:18;56284.22;;;-142.13;42.28
11712;BME280;5912;51.034;6.984;2023-04-15T12:52:44;56290.22;;;-142.13;42.81
11712;BME280;5912;51.034;6.984;2023-04-15T12:55:09;56316.25;;;-142.13;43.61